OIHH

Details ICAO OIHH (HDM)
Name HAMADAN
Region Iran
Timezone Asia/Tehran (UTC+4.5)
Plans Departing 13
Arriving 18
Stats Elevation 5,755 ft / 1,754 m (AMSL)
Location 34.867326° 48.556359°
Runways 1
Magnetic Variation 4.722° E
Sunrise 2018-05-22 01:39:29 UTC / 2018-05-22 06:09:29 Local
Sunset 2018-05-22 15:48:14 UTC / 2018-05-22 20:18:14 Local
Advertisement - Login to hide

Runways

ID Width Length Bearing (true) Bearing (mag) Surface Threshold Offset Overrun Length
10 148 ft / 45 m 10,593 ft / 3,229 m 104.94° 100.22° Asphalt 987 ft / 301 m 197 ft / 60 m
28 148 ft / 45 m 10,593 ft / 3,229 m 284.96° 280.24° Asphalt 0 ft / 0 m 197 ft / 60 m

Map

Weather


0- 5 10 15 20 25 30 35+ Temperature / ° C

Clouds and Precipitation
Forecast for 2018-05-22 12:00 UTC. Updated an hour ago

Ground ~20,000 ft ~40,000 ft Winds

METAR

OIHH 221152Z 12008KT 9999 FEW035CB SCT040 BKN090 17/12 Q1023 RETSSHRA

TAF

Not found

Frequencies

Tower 121.90 MHz TWR
Tower 123.50 MHz TWR
Warning: Do not use this data for real-world aviation or navigation. No guarantee of current accuracy is given.